sensor_id;sensor_type;location;lat;lon;timestamp;pressure;altitude;pressure_sealevel;temperature;humidity
13604;BME280;24578;48.264;11.436;2023-05-23T00:00:07;95829.59;;;15.53;100.00
13604;BME280;24578;48.264;11.436;2023-05-23T00:03:29;95832.66;;;15.48;100.00
13604;BME280;24578;48.264;11.436;2023-05-23T00:06:52;95835.63;;;15.53;100.00
13604;BME280;24578;48.264;11.436;2023-05-23T00:10:14;95836.28;;;15.56;100.00
13604;BME280;24578;48.264;11.436;2023-05-23T00:13:35;95836.97;;;15.58;100.00
13604;BME280;24578;48.264;11.436;2023-05-23T00:16:57;95831.75;;;15.58;100.00
13604;BME280;24578;48.264;11.436;2023-05-23T00:20:20;95829.44;;;15.55;100.00
13604;BME280;24578;48.264;11.436;2023-05-23T00:23:42;95833.38;;;15.59;100.00
13604;BME280;24578;48.264;11.436;2023-05-23T00:27:03;95831.75;;;15.58;100.00
13604;BME280;24578;48.264;11.436;2023-05-23T00:30:30;95831.06;;;15.56;100.00
13604;BME280;24578;48.264;11.436;2023-05-23T00:33:52;95833.22;;;15.60;100.00
13604;BME280;24578;48.264;11.436;2023-05-23T00:37:14;95832.41;;;15.60;100.00
13604;BME280;24578;48.264;11.436;2023-05-23T00:40:36;95830.09;;;15.57;100.00
13604;BME280;24578;48.264;11.436;2023-05-23T00:43:58;95826.16;;;15.52;100.00
13604;BME280;24578;48.264;11.436;2023-05-23T00:47:20;95828.09;;;15.50;100.00
13604;BME280;24578;48.264;11.436;2023-05-23T00:50:42;95837.34;;;15.45;100.00
13604;BME280;24578;48.264;11.436;2023-05-23T00:54:04;95826.78;;;15.46;100.00
13604;BME280;24578;48.264;11.436;2023-05-23T00:57:27;95828.19;;;15.41;100.00
13604;BME280;24578;48.264;11.436;2023-05-23T01:00:49;95838.09;;;15.37;100.00
13604;BME280;24578;48.264;11.436;2023-05-23T01:04:16;95836.09;;;15.31;100.00
13604;BME280;24578;48.264;11.436;2023-05-23T01:07:38;95835.22;;;15.22;100.00
13604;BME280;24578;48.264;11.436;2023-05-23T01:11:05;95836.03;;;15.22;100.00
13604;BME280;24578;48.264;11.436;2023-05-23T01:14:46;95836.63;;;15.16;100.00
13604;BME280;24578;48.264;11.436;2023-05-23T01:18:17;95839.81;;;15.10;100.00
13604;BME280;24578;48.264;11.436;2023-05-23T01:21:43;95852.63;;;15.03;100.00
13604;BME280;24578;48.264;11.436;2023-05-23T01:28:50;95852.84;;;14.92;100.00
13604;BME280;24578;48.264;11.436;2023-05-23T01:32:16;95854.56;;;14.83;100.00
13604;BME280;24578;48.264;11.436;2023-05-23T01:35:41;95855.41;;;14.74;100.00
13604;BME280;24578;48.264;11.436;2023-05-23T01:39:04;95851.31;;;14.71;100.00
13604;BME280;24578;48.264;11.436;2023-05-23T01:42:27;95856.94;;;14.67;100.00
13604;BME280;24578;48.264;11.436;2023-05-23T01:45:51;95860.78;;;14.62;100.00
13604;BME280;24578;48.264;11.436;2023-05-23T01:49:15;95866.88;;;14.53;100.00
13604;BME280;24578;48.264;11.436;2023-05-23T01:52:38;95869.38;;;14.45;100.00
13604;BME280;24578;48.264;11.436;2023-05-23T01:56:01;95865.00;;;14.45;100.00
13604;BME280;24578;48.264;11.436;2023-05-23T01:59:24;95876.94;;;14.38;100.00
13604;BME280;24578;48.264;11.436;2023-05-23T02:02:46;95872.56;;;14.39;100.00
13604;BME280;24578;48.264;11.436;2023-05-23T02:06:08;95871.47;;;14.41;100.00
13604;BME280;24578;48.264;11.436;2023-05-23T02:09:30;95867.06;;;14.42;100.00
13604;BME280;24578;48.264;11.436;2023-05-23T02:12:52;95862.53;;;14.44;100.00
13604;BME280;24578;48.264;11.436;2023-05-23T02:16:14;95871.03;;;14.46;100.00
13604;BME280;24578;48.264;11.436;2023-05-23T02:19:36;95878.31;;;14.42;100.00
13604;BME280;24578;48.264;11.436;2023-05-23T02:22:58;95871.75;;;14.38;100.00
13604;BME280;24578;48.264;11.436;2023-05-23T02:26:19;95873.13;;;14.32;100.00
13604;BME280;24578;48.264;11.436;2023-05-23T02:29:42;95885.47;;;14.30;100.00
13604;BME280;24578;48.264;11.436;2023-05-23T02:33:04;95885.38;;;14.22;100.00
13604;BME280;24578;48.264;11.436;2023-05-23T02:36:26;95878.56;;;14.11;100.00
13604;BME280;24578;48.264;11.436;2023-05-23T02:39:48;95878.31;;;14.05;100.00
13604;BME280;24578;48.264;11.436;2023-05-23T02:43:10;95879.53;;;14.00;100.00
13604;BME280;24578;48.264;11.436;2023-05-23T02:46:32;95885.72;;;13.90;100.00
13604;BME280;24578;48.264;11.436;2023-05-23T02:49:53;95889.44;;;13.87;100.00
13604;BME280;24578;48.264;11.436;2023-05-23T02:53:15;95889.97;;;13.81;100.00
13604;BME280;24578;48.264;11.436;2023-05-23T02:56:37;95893.41;;;13.72;100.00
13604;BME280;24578;48.264;11.436;2023-05-23T02:59:59;95890.13;;;13.69;100.00
13604;BME280;24578;48.264;11.436;2023-05-23T03:03:21;95899.84;;;13.67;100.00
13604;BME280;24578;48.264;11.436;2023-05-23T03:06:42;95900.44;;;13.61;100.00
13604;BME280;24578;48.264;11.436;2023-05-23T03:10:05;95901.22;;;13.62;100.00
13604;BME280;24578;48.264;11.436;2023-05-23T03:13:27;95904.50;;;13.64;100.00
13604;BME280;24578;48.264;11.436;2023-05-23T03:16:49;95893.16;;;13.65;100.00
13604;BME280;24578;48.264;11.436;2023-05-23T03:20:11;95895.22;;;13.61;100.00
13604;BME280;24578;48.264;11.436;2023-05-23T03:23:32;95899.59;;;13.61;100.00
13604;BME280;24578;48.264;11.436;2023-05-23T03:26:54;95900.44;;;13.61;100.00
13604;BME280;24578;48.264;11.436;2023-05-23T03:30:16;95895.50;;;13.58;100.00
13604;BME280;24578;48.264;11.436;2023-05-23T03:33:38;95890.03;;;13.51;100.00
13604;BME280;24578;48.264;11.436;2023-05-23T03:36:59;95890.56;;;13.45;100.00
13604;BME280;24578;48.264;11.436;2023-05-23T03:40:21;95894.53;;;13.49;100.00
13604;BME280;24578;48.264;11.436;2023-05-23T03:43:43;95895.63;;;13.47;100.00
13604;BME280;24578;48.264;11.436;2023-05-23T03:47:05;95890.44;;;13.47;100.00
13604;BME280;24578;48.264;11.436;2023-05-23T03:50:27;95895.34;;;13.50;100.00
13604;BME280;24578;48.264;11.436;2023-05-23T03:53:48;95897.81;;;13.51;100.00
13604;BME280;24578;48.264;11.436;2023-05-23T03:57:10;95906.00;;;13.57;100.00
13604;BME280;24578;48.264;11.436;2023-05-23T04:00:32;95913.00;;;13.66;100.00
13604;BME280;24578;48.264;11.436;2023-05-23T04:03:54;95907.13;;;13.74;100.00
13604;BME280;24578;48.264;11.436;2023-05-23T04:07:15;95906.66;;;14.08;100.00
13604;BME280;24578;48.264;11.436;2023-05-23T04:10:37;95917.75;;;14.48;100.00
13604;BME280;24578;48.264;11.436;2023-05-23T04:13:59;95920.25;;;14.77;100.00
13604;BME280;24578;48.264;11.436;2023-05-23T04:17:23;95913.31;;;15.14;100.00
13604;BME280;24578;48.264;11.436;2023-05-23T04:20:45;95910.13;;;15.38;100.00
13604;BME280;24578;48.264;11.436;2023-05-23T04:24:07;95905.59;;;15.58;100.00
13604;BME280;24578;48.264;11.436;2023-05-23T04:27:29;95909.00;;;15.95;100.00
13604;BME280;24578;48.264;11.436;2023-05-23T04:30:51;95913.75;;;15.81;100.00
13604;BME280;24578;48.264;11.436;2023-05-23T04:34:13;95932.97;;;15.54;100.00
13604;BME280;24578;48.264;11.436;2023-05-23T04:37:37;95924.81;;;15.75;100.00
13604;BME280;24578;48.264;11.436;2023-05-23T04:40:59;95938.69;;;16.20;100.00
13604;BME280;24578;48.264;11.436;2023-05-23T04:44:22;95932.03;;;16.87;100.00
13604;BME280;24578;48.264;11.436;2023-05-23T04:47:44;95931.59;;;17.00;100.00
13604;BME280;24578;48.264;11.436;2023-05-23T04:51:07;95928.63;;;17.71;100.00
13604;BME280;24578;48.264;11.436;2023-05-23T04:54:29;95932.75;;;17.98;100.00
13604;BME280;24578;48.264;11.436;2023-05-23T04:57:51;95934.09;;;18.67;100.00
13604;BME280;24578;48.264;11.436;2023-05-23T05:01:13;95930.13;;;19.42;100.00
13604;BME280;24578;48.264;11.436;2023-05-23T05:04:36;95935.00;;;19.54;100.00
13604;BME280;24578;48.264;11.436;2023-05-23T05:07:57;95936.13;;;19.28;100.00
13604;BME280;24578;48.264;11.436;2023-05-23T05:11:19;95937.88;;;19.67;100.00
13604;BME280;24578;48.264;11.436;2023-05-23T05:14:42;95939.56;;;18.97;100.00
13604;BME280;24578;48.264;11.436;2023-05-23T05:18:04;95941.22;;;18.90;100.00
13604;BME280;24578;48.264;11.436;2023-05-23T05:21:26;95943.31;;;19.34;100.00
13604;BME280;24578;48.264;11.436;2023-05-23T05:24:48;95955.28;;;19.05;100.00
13604;BME280;24578;48.264;11.436;2023-05-23T05:28:09;95953.47;;;18.49;100.00
13604;BME280;24578;48.264;11.436;2023-05-23T05:31:31;95957.94;;;18.16;100.00
13604;BME280;24578;48.264;11.436;2023-05-23T05:34:53;95964.53;;;18.76;100.00
13604;BME280;24578;48.264;11.436;2023-05-23T05:38:15;95952.97;;;19.42;100.00
13604;BME280;24578;48.264;11.436;2023-05-23T05:41:36;95954.31;;;19.61;100.00
13604;BME280;24578;48.264;11.436;2023-05-23T05:44:58;95959.94;;;19.26;100.00
13604;BME280;24578;48.264;11.436;2023-05-23T05:48:20;95964.06;;;19.21;100.00
13604;BME280;24578;48.264;11.436;2023-05-23T05:51:42;95967.47;;;18.81;100.00
13604;BME280;24578;48.264;11.436;2023-05-23T05:55:05;95961.50;;;18.39;100.00
13604;BME280;24578;48.264;11.436;2023-05-23T05:58:27;95958.06;;;18.39;100.00
13604;BME280;24578;48.264;11.436;2023-05-23T06:01:49;95963.66;;;19.32;100.00
13604;BME280;24578;48.264;11.436;2023-05-23T06:05:14;95957.38;;;21.46;100.00
13604;BME280;24578;48.264;11.436;2023-05-23T06:08:37;95959.41;;;22.59;100.00
13604;BME280;24578;48.264;11.436;2023-05-23T06:11:58;95965.91;;;22.63;100.00
13604;BME280;24578;48.264;11.436;2023-05-23T06:15:20;95964.50;;;23.51;100.00
13604;BME280;24578;48.264;11.436;2023-05-23T06:18:42;95954.66;;;24.14;100.00
13604;BME280;24578;48.264;11.436;2023-05-23T06:22:04;95965.44;;;24.06;100.00
13604;BME280;24578;48.264;11.436;2023-05-23T06:25:26;95968.03;;;23.92;100.00
13604;BME280;24578;48.264;11.436;2023-05-23T06:28:47;95966.81;;;23.88;100.00
13604;BME280;24578;48.264;11.436;2023-05-23T06:32:09;95958.06;;;24.68;100.00
13604;BME280;24578;48.264;11.436;2023-05-23T06:35:31;95963.56;;;24.67;100.00
13604;BME280;24578;48.264;11.436;2023-05-23T06:38:53;95980.59;;;23.70;100.00
13604;BME280;24578;48.264;11.436;2023-05-23T06:42:14;95974.34;;;22.45;100.00
13604;BME280;24578;48.264;11.436;2023-05-23T06:45:36;95980.25;;;22.04;100.00
13604;BME280;24578;48.264;11.436;2023-05-23T06:48:58;95967.66;;;24.09;100.00
13604;BME280;24578;48.264;11.436;2023-05-23T06:52:20;95974.84;;;25.07;100.00
13604;BME280;24578;48.264;11.436;2023-05-23T06:55:42;95973.72;;;24.56;100.00
13604;BME280;24578;48.264;11.436;2023-05-23T06:59:04;95983.13;;;24.05;100.00
13604;BME280;24578;48.264;11.436;2023-05-23T07:02:25;95983.06;;;23.92;100.00
13604;BME280;24578;48.264;11.436;2023-05-23T07:05:47;95991.75;;;23.17;100.00
13604;BME280;24578;48.264;11.436;2023-05-23T07:09:09;95984.25;;;22.43;100.00
13604;BME280;24578;48.264;11.436;2023-05-23T07:12:32;95996.13;;;21.89;100.00
13604;BME280;24578;48.264;11.436;2023-05-23T07:15:55;95991.09;;;21.36;100.00
13604;BME280;24578;48.264;11.436;2023-05-23T07:19:16;95996.94;;;21.16;100.00
13604;BME280;24578;48.264;11.436;2023-05-23T07:22:38;95993.91;;;21.34;100.00
13604;BME280;24578;48.264;11.436;2023-05-23T07:26:01;95999.06;;;21.79;100.00
13604;BME280;24578;48.264;11.436;2023-05-23T07:29:23;95991.72;;;21.96;100.00
13604;BME280;24578;48.264;11.436;2023-05-23T07:32:44;95992.78;;;22.24;100.00
13604;BME280;24578;48.264;11.436;2023-05-23T07:36:06;95991.78;;;22.25;100.00
13604;BME280;24578;48.264;11.436;2023-05-23T07:39:28;95998.53;;;22.05;100.00
13604;BME280;24578;48.264;11.436;2023-05-23T07:42:50;95998.13;;;21.87;100.00
13604;BME280;24578;48.264;11.436;2023-05-23T07:46:13;96001.91;;;21.99;100.00
13604;BME280;24578;48.264;11.436;2023-05-23T07:49:35;96007.47;;;22.33;100.00
13604;BME280;24578;48.264;11.436;2023-05-23T07:52:57;96002.72;;;22.00;100.00
13604;BME280;24578;48.264;11.436;2023-05-23T07:56:19;96001.94;;;21.63;100.00
13604;BME280;24578;48.264;11.436;2023-05-23T07:59:41;96004.47;;;20.89;100.00
13604;BME280;24578;48.264;11.436;2023-05-23T08:03:03;96006.28;;;21.04;100.00
13604;BME280;24578;48.264;11.436;2023-05-23T08:06:24;96004.69;;;22.41;100.00
13604;BME280;24578;48.264;11.436;2023-05-23T08:09:46;96009.44;;;23.58;100.00
13604;BME280;24578;48.264;11.436;2023-05-23T08:13:08;96000.81;;;23.98;100.00
13604;BME280;24578;48.264;11.436;2023-05-23T08:16:30;96002.63;;;24.11;100.00
13604;BME280;24578;48.264;11.436;2023-05-23T08:19:52;96005.50;;;24.02;100.00
13604;BME280;24578;48.264;11.436;2023-05-23T08:23:14;96010.25;;;23.65;100.00
13604;BME280;24578;48.264;11.436;2023-05-23T08:26:36;96014.50;;;23.18;100.00
13604;BME280;24578;48.264;11.436;2023-05-23T08:29:58;96011.69;;;23.19;100.00
13604;BME280;24578;48.264;11.436;2023-05-23T08:33:20;96018.19;;;23.65;100.00
13604;BME280;24578;48.264;11.436;2023-05-23T08:36:41;96012.00;;;24.67;99.29
13604;BME280;24578;48.264;11.436;2023-05-23T08:40:06;96003.16;;;25.66;93.33
13604;BME280;24578;48.264;11.436;2023-05-23T08:43:34;96012.56;;;25.62;89.86
13604;BME280;24578;48.264;11.436;2023-05-23T08:47:02;96015.13;;;25.23;90.02
13604;BME280;24578;48.264;11.436;2023-05-23T08:50:29;96020.72;;;24.61;90.62
13604;BME280;24578;48.264;11.436;2023-05-23T08:53:52;96025.72;;;23.68;95.79
13604;BME280;24578;48.264;11.436;2023-05-23T08:57:15;96038.50;;;22.59;100.00
13604;BME280;24578;48.264;11.436;2023-05-23T09:00:37;96041.47;;;22.06;100.00
13604;BME280;24578;48.264;11.436;2023-05-23T09:03:59;96034.22;;;22.30;100.00
13604;BME280;24578;48.264;11.436;2023-05-23T09:07:27;96034.22;;;22.30;100.00
13604;BME280;24578;48.264;11.436;2023-05-23T09:10:49;96035.81;;;22.53;100.00
13604;BME280;24578;48.264;11.436;2023-05-23T09:14:12;96033.25;;;22.16;100.00
13604;BME280;24578;48.264;11.436;2023-05-23T09:17:36;96040.84;;;21.82;100.00
13604;BME280;24578;48.264;11.436;2023-05-23T09:20:58;96050.41;;;21.68;100.00
13604;BME280;24578;48.264;11.436;2023-05-23T09:24:20;96040.94;;;21.74;100.00
13604;BME280;24578;48.264;11.436;2023-05-23T09:27:42;96049.53;;;21.46;100.00
13604;BME280;24578;48.264;11.436;2023-05-23T09:31:06;96050.09;;;21.41;100.00
13604;BME280;24578;48.264;11.436;2023-05-23T09:34:29;96049.38;;;21.33;100.00
13604;BME280;24578;48.264;11.436;2023-05-23T09:37:52;96048.84;;;21.07;100.00
13604;BME280;24578;48.264;11.436;2023-05-23T09:41:18;96045.88;;;20.72;100.00
13604;BME280;24578;48.264;11.436;2023-05-23T09:44:40;96051.25;;;20.79;100.00
13604;BME280;24578;48.264;11.436;2023-05-23T09:48:03;96047.03;;;20.78;100.00
13604;BME280;24578;48.264;11.436;2023-05-23T09:51:24;96052.75;;;21.11;100.00
13604;BME280;24578;48.264;11.436;2023-05-23T09:54:46;96050.88;;;21.57;100.00
13604;BME280;24578;48.264;11.436;2023-05-23T09:58:09;96052.66;;;22.08;100.00
13604;BME280;24578;48.264;11.436;2023-05-23T10:01:32;96053.78;;;21.99;100.00
13604;BME280;24578;48.264;11.436;2023-05-23T10:04:55;96045.41;;;21.73;100.00
13604;BME280;24578;48.264;11.436;2023-05-23T10:08:20;96050.19;;;21.85;100.00
13604;BME280;24578;48.264;11.436;2023-05-23T10:12:20;96051.50;;;21.74;100.00
13604;BME280;24578;48.264;11.436;2023-05-23T10:15:37;96054.31;;;21.72;100.00
13604;BME280;24578;48.264;11.436;2023-05-23T10:19:29;96047.16;;;21.51;100.00
13604;BME280;24578;48.264;11.436;2023-05-23T10:22:48;96043.84;;;21.79;100.00
13604;BME280;24578;48.264;11.436;2023-05-23T10:26:10;96038.41;;;22.46;100.00
13604;BME280;24578;48.264;11.436;2023-05-23T10:29:32;96032.31;;;23.99;99.19
13604;BME280;24578;48.264;11.436;2023-05-23T10:32:56;96015.84;;;24.91;87.52
13604;BME280;24578;48.264;11.436;2023-05-23T10:36:26;96011.91;;;26.05;80.13
13604;BME280;24578;48.264;11.436;2023-05-23T10:47:02;96010.91;;;27.87;52.96
13604;BME280;24578;48.264;11.436;2023-05-23T10:50:32;96008.63;;;27.60;55.61
13604;BME280;24578;48.264;11.436;2023-05-23T10:53:54;95994.41;;;28.51;55.24
13604;BME280;24578;48.264;11.436;2023-05-23T10:57:19;95994.66;;;29.50;49.40
13604;BME280;24578;48.264;11.436;2023-05-23T11:04:13;95992.31;;;30.12;45.77
13604;BME280;24578;48.264;11.436;2023-05-23T11:07:35;95992.03;;;30.30;45.57
13604;BME280;24578;48.264;11.436;2023-05-23T11:11:06;95990.06;;;30.20;45.43
13604;BME280;24578;48.264;11.436;2023-05-23T11:14:31;95987.16;;;29.93;44.71
13604;BME280;24578;48.264;11.436;2023-05-23T11:17:55;95981.59;;;31.19;41.72
13604;BME280;24578;48.264;11.436;2023-05-23T11:21:20;95975.06;;;31.32;40.49
13604;BME280;24578;48.264;11.436;2023-05-23T11:24:50;95974.75;;;30.16;43.12
13604;BME280;24578;48.264;11.436;2023-05-23T11:28:12;95986.31;;;29.75;45.35
13604;BME280;24578;48.264;11.436;2023-05-23T11:31:38;95969.59;;;31.22;40.99
13604;BME280;24578;48.264;11.436;2023-05-23T11:35:02;95969.06;;;30.63;40.58
13604;BME280;24578;48.264;11.436;2023-05-23T11:38:25;95978.31;;;30.04;44.44
13604;BME280;24578;48.264;11.436;2023-05-23T11:41:58;95976.50;;;29.93;43.80
13604;BME280;24578;48.264;11.436;2023-05-23T11:45:21;95971.13;;;29.76;41.56
13604;BME280;24578;48.264;11.436;2023-05-23T11:48:47;95963.28;;;30.15;42.27
13604;BME280;24578;48.264;11.436;2023-05-23T11:52:09;95966.78;;;29.29;43.38
13604;BME280;24578;48.264;11.436;2023-05-23T11:55:31;95983.28;;;27.88;47.82
13604;BME280;24578;48.264;11.436;2023-05-23T11:58:55;95984.88;;;26.91;51.99
13604;BME280;24578;48.264;11.436;2023-05-23T12:02:17;95985.56;;;25.78;57.27
13604;BME280;24578;48.264;11.436;2023-05-23T12:05:42;95980.94;;;25.67;54.73
13604;BME280;24578;48.264;11.436;2023-05-23T12:09:03;95979.34;;;26.49;52.81
13604;BME280;24578;48.264;11.436;2023-05-23T12:12:25;95971.50;;;27.54;49.07
13604;BME280;24578;48.264;11.436;2023-05-23T12:15:47;95977.28;;;28.47;46.09
13604;BME280;24578;48.264;11.436;2023-05-23T12:19:09;95970.94;;;29.66;43.87
13604;BME280;24578;48.264;11.436;2023-05-23T12:22:31;95989.34;;;28.74;45.08
13604;BME280;24578;48.264;11.436;2023-05-23T12:25:54;95985.19;;;27.01;57.77
13604;BME280;24578;48.264;11.436;2023-05-23T12:29:29;95995.97;;;25.80;64.88
13604;BME280;24578;48.264;11.436;2023-05-23T12:32:51;95976.91;;;27.10;60.87
13604;BME280;24578;48.264;11.436;2023-05-23T12:36:14;95984.31;;;27.87;54.64
13604;BME280;24578;48.264;11.436;2023-05-23T12:39:36;95973.56;;;28.84;50.16
13604;BME280;24578;48.264;11.436;2023-05-23T12:42:57;95988.22;;;29.22;46.20
13604;BME280;24578;48.264;11.436;2023-05-23T12:46:20;95982.66;;;29.24;45.11
13604;BME280;24578;48.264;11.436;2023-05-23T12:49:42;95979.63;;;29.32;43.83
13604;BME280;24578;48.264;11.436;2023-05-23T12:53:05;95971.38;;;29.45;41.57
13604;BME280;24578;48.264;11.436;2023-05-23T12:56:27;95976.97;;;29.32;43.24
13604;BME280;24578;48.264;11.436;2023-05-23T12:59:48;95989.66;;;28.41;44.53
13604;BME280;24578;48.264;11.436;2023-05-23T13:03:10;95981.34;;;28.38;42.93
13604;BME280;24578;48.264;11.436;2023-05-23T13:06:32;95976.22;;;28.48;42.66
13604;BME280;24578;48.264;11.436;2023-05-23T13:09:54;95975.31;;;28.90;41.88
13604;BME280;24578;48.264;11.436;2023-05-23T13:13:15;95982.81;;;28.57;41.50
13604;BME280;24578;48.264;11.436;2023-05-23T13:16:37;95991.03;;;28.20;43.15
13604;BME280;24578;48.264;11.436;2023-05-23T13:19:59;95991.00;;;27.78;45.00
13604;BME280;24578;48.264;11.436;2023-05-23T13:23:21;95984.88;;;27.28;46.69
13604;BME280;24578;48.264;11.436;2023-05-23T13:26:45;95977.28;;;27.13;48.33
13604;BME280;24578;48.264;11.436;2023-05-23T13:30:07;95981.50;;;26.84;45.29
13604;BME280;24578;48.264;11.436;2023-05-23T13:33:29;95968.78;;;27.23;44.78
13604;BME280;24578;48.264;11.436;2023-05-23T13:36:51;95966.81;;;26.81;46.04
13604;BME280;24578;48.264;11.436;2023-05-23T13:40:18;95963.63;;;26.28;47.89
13604;BME280;24578;48.264;11.436;2023-05-23T13:43:40;95967.34;;;26.21;48.60
13604;BME280;24578;48.264;11.436;2023-05-23T13:47:13;95961.94;;;26.78;48.08
13604;BME280;24578;48.264;11.436;2023-05-23T13:50:34;95944.47;;;27.99;43.87
13604;BME280;24578;48.264;11.436;2023-05-23T13:53:57;95942.88;;;28.69;41.28
13604;BME280;24578;48.264;11.436;2023-05-23T13:57:19;95951.25;;;28.61;42.17
13604;BME280;24578;48.264;11.436;2023-05-23T14:00:43;95955.97;;;28.83;41.75
13604;BME280;24578;48.264;11.436;2023-05-23T14:04:05;95960.50;;;28.82;39.43
13604;BME280;24578;48.264;11.436;2023-05-23T14:07:27;95960.84;;;28.74;40.74
13604;BME280;24578;48.264;11.436;2023-05-23T14:10:49;95951.34;;;29.02;39.40
13604;BME280;24578;48.264;11.436;2023-05-23T14:14:10;95952.00;;;29.09;38.93
13604;BME280;24578;48.264;11.436;2023-05-23T14:17:32;95957.50;;;27.77;40.58
13604;BME280;24578;48.264;11.436;2023-05-23T14:20:54;95970.06;;;26.83;44.20
13604;BME280;24578;48.264;11.436;2023-05-23T14:24:16;95967.72;;;26.24;46.58
13604;BME280;24578;48.264;11.436;2023-05-23T14:27:37;95975.69;;;25.92;50.19
13604;BME280;24578;48.264;11.436;2023-05-23T14:31:00;95976.09;;;25.57;49.07
13604;BME280;24578;48.264;11.436;2023-05-23T14:34:22;95986.22;;;25.21;49.52
13604;BME280;24578;48.264;11.436;2023-05-23T14:37:44;95982.22;;;25.05;50.67
13604;BME280;24578;48.264;11.436;2023-05-23T14:41:07;95981.69;;;24.56;52.76
13604;BME280;24578;48.264;11.436;2023-05-23T14:44:28;95980.06;;;24.22;54.85
13604;BME280;24578;48.264;11.436;2023-05-23T14:47:50;95983.88;;;23.79;56.29
13604;BME280;24578;48.264;11.436;2023-05-23T14:51:12;95983.94;;;24.12;53.61
13604;BME280;24578;48.264;11.436;2023-05-23T14:54:34;96005.50;;;24.16;54.39
13604;BME280;24578;48.264;11.436;2023-05-23T14:57:56;96007.66;;;23.92;53.81
13604;BME280;24578;48.264;11.436;2023-05-23T15:01:18;96012.91;;;23.72;56.19
13604;BME280;24578;48.264;11.436;2023-05-23T15:04:40;96020.06;;;23.78;53.89
13604;BME280;24578;48.264;11.436;2023-05-23T15:08:02;96015.41;;;23.25;56.51
13604;BME280;24578;48.264;11.436;2023-05-23T15:11:24;96024.72;;;23.21;56.09
13604;BME280;24578;48.264;11.436;2023-05-23T15:14:46;96020.38;;;22.78;56.92
13604;BME280;24578;48.264;11.436;2023-05-23T15:18:08;96015.31;;;22.76;57.28
13604;BME280;24578;48.264;11.436;2023-05-23T15:21:32;96028.69;;;23.10;54.34
13604;BME280;24578;48.264;11.436;2023-05-23T15:24:53;96025.88;;;23.11;52.52
13604;BME280;24578;48.264;11.436;2023-05-23T15:28:15;96018.97;;;23.10;51.64
13604;BME280;24578;48.264;11.436;2023-05-23T15:31:37;96012.44;;;23.06;49.97
13604;BME280;24578;48.264;11.436;2023-05-23T15:34:58;96017.66;;;22.93;52.41
13604;BME280;24578;48.264;11.436;2023-05-23T15:38:20;96022.47;;;22.89;51.79
13604;BME280;24578;48.264;11.436;2023-05-23T15:41:42;96025.13;;;22.89;52.16
13604;BME280;24578;48.264;11.436;2023-05-23T15:45:04;96028.72;;;23.17;51.05
13604;BME280;24578;48.264;11.436;2023-05-23T15:48:26;96026.63;;;23.05;52.46
13604;BME280;24578;48.264;11.436;2023-05-23T15:51:48;96015.81;;;22.93;54.68
13604;BME280;24578;48.264;11.436;2023-05-23T15:55:09;96028.72;;;22.81;54.35
13604;BME280;24578;48.264;11.436;2023-05-23T15:58:31;96034.31;;;22.65;55.99
13604;BME280;24578;48.264;11.436;2023-05-23T16:01:53;96034.72;;;22.18;57.08
13604;BME280;24578;48.264;11.436;2023-05-23T16:05:15;96032.47;;;22.15;57.23
13604;BME280;24578;48.264;11.436;2023-05-23T16:08:36;96036.16;;;21.99;56.09
13604;BME280;24578;48.264;11.436;2023-05-23T16:11:58;96040.59;;;22.20;56.46
13604;BME280;24578;48.264;11.436;2023-05-23T16:15:20;96053.72;;;21.92;56.10
13604;BME280;24578;48.264;11.436;2023-05-23T16:18:42;96050.25;;;21.70;58.60
13604;BME280;24578;48.264;11.436;2023-05-23T16:22:04;96045.81;;;21.55;58.51
13604;BME280;24578;48.264;11.436;2023-05-23T16:25:26;96055.97;;;21.43;61.40
13604;BME280;24578;48.264;11.436;2023-05-23T16:28:48;96050.34;;;21.47;59.36
13604;BME280;24578;48.264;11.436;2023-05-23T16:32:11;96059.91;;;21.33;60.63
13604;BME280;24578;48.264;11.436;2023-05-23T16:38:54;96052.28;;;21.08;62.17
13604;BME280;24578;48.264;11.436;2023-05-23T16:45:38;96055.22;;;20.75;63.72
13604;BME280;24578;48.264;11.436;2023-05-23T16:48:59;96056.22;;;20.74;63.67
13604;BME280;24578;48.264;11.436;2023-05-23T16:52:22;96069.16;;;20.60;63.97
13604;BME280;24578;48.264;11.436;2023-05-23T16:55:44;96076.94;;;20.53;62.72
13604;BME280;24578;48.264;11.436;2023-05-23T16:59:06;96076.94;;;20.53;62.28
13604;BME280;24578;48.264;11.436;2023-05-23T17:02:28;96078.81;;;20.45;62.43
13604;BME280;24578;48.264;11.436;2023-05-23T17:05:50;96080.06;;;20.34;62.53
13604;BME280;24578;48.264;11.436;2023-05-23T17:09:11;96069.88;;;20.31;62.73
13604;BME280;24578;48.264;11.436;2023-05-23T17:12:34;96077.09;;;20.14;64.46
13604;BME280;24578;48.264;11.436;2023-05-23T17:15:56;96078.88;;;19.90;66.67
13604;BME280;24578;48.264;11.436;2023-05-23T17:19:17;96079.50;;;19.60;68.80
13604;BME280;24578;48.264;11.436;2023-05-23T17:22:39;96085.09;;;19.49;68.29
13604;BME280;24578;48.264;11.436;2023-05-23T17:26:02;96087.16;;;19.30;70.29
13604;BME280;24578;48.264;11.436;2023-05-23T17:29:26;96084.75;;;19.12;71.68
13604;BME280;24578;48.264;11.436;2023-05-23T17:32:47;96075.41;;;19.10;71.24
13604;BME280;24578;48.264;11.436;2023-05-23T17:36:09;96087.69;;;18.93;72.99
13604;BME280;24578;48.264;11.436;2023-05-23T17:39:31;96076.22;;;18.94;71.66
13604;BME280;24578;48.264;11.436;2023-05-23T17:42:53;96083.47;;;19.00;67.70
13604;BME280;24578;48.264;11.436;2023-05-23T17:46:15;96076.59;;;18.91;65.52
13604;BME280;24578;48.264;11.436;2023-05-23T17:49:36;96069.41;;;18.76;66.56
13604;BME280;24578;48.264;11.436;2023-05-23T17:52:59;96078.09;;;18.68;66.12